createdAt,value
2023-01-13T00:00:32.531Z,16.27
2023-01-13T00:03:00.557Z,16.95
2023-01-13T00:05:28.509Z,15.45
2023-01-13T00:07:56.458Z,14.80
2023-01-13T00:10:24.588Z,19.30
2023-01-13T00:12:53.620Z,16.90
2023-01-13T00:15:23.150Z,14.82
2023-01-13T00:17:51.145Z,15.20
2023-01-13T00:20:19.262Z,16.55
2023-01-13T00:22:47.378Z,19.27
2023-01-13T00:25:18.360Z,15.88
2023-01-13T00:27:46.330Z,17.40
2023-01-13T00:30:14.934Z,17.20
2023-01-13T00:32:44.333Z,16.67
2023-01-13T00:35:12.302Z,16.45
2023-01-13T00:37:41.119Z,15.80
2023-01-13T00:40:10.635Z,18.58
2023-01-13T00:42:55.940Z,15.52
2023-01-13T00:45:23.952Z,15.52
2023-01-13T00:47:53.311Z,15.43
2023-01-13T00:50:21.272Z,15.93
2023-01-13T00:52:49.215Z,15.85
2023-01-13T00:55:17.340Z,24.23
2023-01-13T00:57:45.348Z,17.27
2023-01-13T01:00:14.681Z,16.75
2023-01-13T01:02:42.963Z,14.50
2023-01-13T01:05:12.373Z,14.35
2023-01-13T01:07:40.307Z,15.68
2023-01-13T01:10:09.084Z,18.70
2023-01-13T01:12:37.139Z,21.10
2023-01-13T01:15:07.528Z,22.55
2023-01-13T01:17:35.504Z,26.17
2023-01-13T01:20:04.184Z,19.83
2023-01-13T01:22:33.676Z,24.15
2023-01-13T01:25:01.841Z,19.10
2023-01-13T01:27:29.829Z,16.77
2023-01-13T01:29:57.885Z,15.98
2023-01-13T01:32:25.813Z,17.52
2023-01-13T01:34:53.824Z,13.60
2023-01-13T01:37:21.924Z,16.02
2023-01-13T01:39:51.294Z,13.68
2023-01-13T01:42:37.553Z,17.27
2023-01-13T01:45:16.252Z,20.20
2023-01-13T01:47:45.229Z,18.77
2023-01-13T01:50:13.483Z,18.13
2023-01-13T01:52:45.252Z,17.17
2023-01-13T01:55:19.153Z,14.13
2023-01-13T01:57:52.968Z,15.45
2023-01-13T02:00:21.321Z,17.10
2023-01-13T02:02:51.866Z,18.35
2023-01-13T02:05:20.826Z,13.88
2023-01-13T02:07:52.708Z,16.90
2023-01-13T02:10:26.140Z,14.10
2023-01-13T02:12:55.761Z,16.65
2023-01-13T02:15:26.776Z,17.50
2023-01-13T02:18:15.953Z,15.50
2023-01-13T02:21:00.576Z,16.70
2023-01-13T02:24:16.602Z,19.23
2023-01-13T02:27:26.185Z,14.57
2023-01-13T02:30:23.423Z,16.20
2023-01-13T02:33:00.904Z,15.73
2023-01-13T02:35:33.789Z,15.10
2023-01-13T02:38:03.309Z,16.13
2023-01-13T02:40:38.235Z,15.40
2023-01-13T02:43:31.083Z,15.48
2023-01-13T02:46:06.325Z,15.02
2023-01-13T02:48:35.757Z,16.73
2023-01-13T02:51:08.627Z,15.43
2023-01-13T02:53:42.672Z,14.68
2023-01-13T02:56:12.543Z,14.47
2023-01-13T02:58:43.092Z,16.95
2023-01-13T03:01:12.635Z,14.77
2023-01-13T03:03:40.697Z,14.75
2023-01-13T03:06:20.343Z,16.50
2023-01-13T03:08:55.582Z,18.10
2023-01-13T03:11:26.333Z,19.95
2023-01-13T03:14:09.899Z,19.80
2023-01-13T03:16:53.433Z,19.20
2023-01-13T03:19:30.821Z,19.15
2023-01-13T03:22:02.950Z,19.65
2023-01-13T03:24:37.851Z,26.98
2023-01-13T03:27:09.157Z,27.08
2023-01-13T03:29:41.270Z,24.58
2023-01-13T03:32:15.622Z,29.67
2023-01-13T03:34:48.524Z,31.75
2023-01-13T03:37:20.479Z,37.20
2023-01-13T03:39:54.068Z,34.95
2023-01-13T03:42:26.494Z,39.22
2023-01-13T03:44:57.841Z,47.33
2023-01-13T03:47:32.870Z,41.08
2023-01-13T03:52:35.331Z,38.28
2023-01-13T03:55:08.689Z,56.40
2023-01-13T03:57:43.164Z,62.00
2023-01-13T04:00:15.076Z,63.83
2023-01-13T04:02:51.612Z,66.47
2023-01-13T04:05:20.207Z,65.15
2023-01-13T04:07:54.907Z,69.25
2023-01-13T04:10:28.808Z,72.93
2023-01-13T04:13:01.825Z,77.13
2023-01-13T04:15:33.200Z,72.22
2023-01-13T04:18:13.753Z,86.75
2023-01-13T04:20:42.597Z,82.25
2023-01-13T04:23:10.941Z,74.18
2023-01-13T04:25:41.659Z,74.70
2023-01-13T04:28:10.493Z,70.25
2023-01-13T04:30:39.459Z,84.15
2023-01-13T04:33:07.519Z,84.88
2023-01-13T04:35:37.206Z,82.32
2023-01-13T04:38:07.001Z,74.03
2023-01-13T04:40:35.131Z,68.18
2023-01-13T04:43:03.272Z,61.38
2023-01-13T04:45:31.448Z,72.72
2023-01-13T04:47:59.634Z,58.83
2023-01-13T04:50:27.899Z,62.03
2023-01-13T04:52:57.411Z,65.95
2023-01-13T04:55:26.287Z,72.22
2023-01-13T04:57:54.769Z,70.28
2023-01-13T05:00:24.309Z,62.45
2023-01-13T05:02:52.643Z,88.95
2023-01-13T05:05:20.776Z,90.88
2023-01-13T05:07:48.714Z,116.25
2023-01-13T05:10:18.517Z,113.53
2023-01-13T05:13:04.849Z,82.20
2023-01-13T05:15:50.624Z,58.30
2023-01-13T05:18:19.259Z,68.55
2023-01-13T05:20:47.330Z,59.40
2023-01-13T05:23:32.928Z,49.00
2023-01-13T05:26:02.302Z,56.03
2023-01-13T05:28:33.353Z,59.75
2023-01-13T05:31:01.737Z,52.38
2023-01-13T05:33:29.695Z,63.08
2023-01-13T05:35:57.655Z,82.07
2023-01-13T05:38:25.623Z,122.45
2023-01-13T05:41:10.884Z,173.10
2023-01-13T05:43:40.253Z,183.57
2023-01-13T05:46:11.407Z,125.68
2023-01-13T05:48:41.445Z,101.00
2023-01-13T05:51:11.720Z,92.88
2023-01-13T05:53:40.818Z,95.68
2023-01-13T05:56:10.520Z,81.13
2023-01-13T05:58:40.327Z,186.63
2023-01-13T06:01:09.764Z,121.57
2023-01-13T06:03:38.541Z,119.25
2023-01-13T06:06:09.082Z,100.35
2023-01-13T06:08:39.581Z,108.68
2023-01-13T06:11:07.757Z,76.82
2023-01-13T06:13:35.814Z,73.72
2023-01-13T06:16:05.554Z,65.82
2023-01-13T06:18:33.688Z,62.67
2023-01-13T06:21:01.844Z,63.28
2023-01-13T06:23:32.072Z,77.97
2023-01-13T06:26:05.374Z,98.85
2023-01-13T06:28:34.913Z,114.50
2023-01-13T06:31:07.473Z,106.25
2023-01-13T06:33:38.684Z,95.40
2023-01-13T06:36:11.406Z,93.35
2023-01-13T06:38:44.236Z,81.28
2023-01-13T06:41:12.196Z,87.15
2023-01-13T06:43:40.254Z,56.85
2023-01-13T06:46:09.722Z,51.85
2023-01-13T06:48:37.677Z,49.42
2023-01-13T06:51:06.162Z,62.60
2023-01-13T06:53:34.172Z,53.88
2023-01-13T06:56:02.233Z,54.05
2023-01-13T06:58:30.237Z,84.55
2023-01-13T07:01:01.983Z,58.70
2023-01-13T07:03:31.369Z,59.33
2023-01-13T07:06:00.479Z,54.80
2023-01-13T07:08:28.388Z,70.60
2023-01-13T07:10:56.379Z,58.95
2023-01-13T07:13:41.939Z,56.58
2023-01-13T07:16:10.716Z,63.55
2023-01-13T07:18:40.265Z,75.38
2023-01-13T07:21:09.965Z,71.32
2023-01-13T07:23:39.731Z,66.93
2023-01-13T07:26:08.476Z,77.60
2023-01-13T07:28:37.111Z,73.70
2023-01-13T07:31:05.879Z,71.18
2023-01-13T07:33:35.959Z,60.10
2023-01-13T07:36:07.318Z,58.67
2023-01-13T07:38:36.375Z,60.60
2023-01-13T07:41:25.065Z,50.60
2023-01-13T07:43:52.540Z,59.28
2023-01-13T07:46:20.885Z,51.47
2023-01-13T07:48:49.824Z,51.63
2023-01-13T07:51:19.396Z,42.10
2023-01-13T07:53:47.511Z,39.00
2023-01-13T07:56:15.622Z,42.80
2023-01-13T07:58:45.037Z,39.28
2023-01-13T08:01:16.850Z,49.17
2023-01-13T08:03:45.639Z,57.22
2023-01-13T08:06:14.187Z,53.10
2023-01-13T08:08:43.759Z,44.72
2023-01-13T08:11:11.845Z,51.65
2023-01-13T08:13:38.836Z,52.75
2023-01-13T08:16:09.537Z,54.88
2023-01-13T08:18:38.853Z,52.65
2023-01-13T08:21:09.847Z,51.40
2023-01-13T08:23:38.326Z,51.33
2023-01-13T08:26:10.355Z,46.63
2023-01-13T08:28:40.503Z,46.80
2023-01-13T08:31:11.548Z,52.90
2023-01-13T08:33:39.873Z,60.13
2023-01-13T08:36:10.316Z,51.08
2023-01-13T08:38:39.181Z,49.78
2023-01-13T08:41:13.023Z,54.50
2023-01-13T08:43:41.207Z,56.65
2023-01-13T08:46:09.477Z,49.00
2023-01-13T08:48:37.782Z,44.35
2023-01-13T08:51:07.610Z,47.40
2023-01-13T08:53:35.989Z,41.10
2023-01-13T08:56:10.990Z,43.55
2023-01-13T09:01:10.236Z,37.97
2023-01-13T09:03:39.243Z,34.35
2023-01-13T09:06:07.681Z,37.67
2023-01-13T09:08:35.839Z,31.45
2023-01-13T09:11:24.225Z,35.78
2023-01-13T09:13:52.734Z,27.40
2023-01-13T09:16:20.774Z,26.33
2023-01-13T09:18:48.836Z,26.77
2023-01-13T09:21:19.863Z,29.75
2023-01-13T09:23:48.242Z,37.45
2023-01-13T09:26:21.301Z,33.83
2023-01-13T09:28:49.539Z,32.25
2023-01-13T09:31:19.044Z,34.50
2023-01-13T09:34:04.706Z,33.85
2023-01-13T09:36:32.819Z,32.97
2023-01-13T09:39:00.973Z,32.33
2023-01-13T09:41:49.916Z,36.67
2023-01-13T09:44:23.537Z,39.55
2023-01-13T09:46:58.419Z,39.65
2023-01-13T09:49:34.048Z,39.08
2023-01-13T09:52:09.251Z,51.63
2023-01-13T09:54:42.283Z,42.72
2023-01-13T09:57:12.317Z,41.70
2023-01-13T09:59:40.917Z,40.08
2023-01-13T10:02:30.394Z,46.08
2023-01-13T10:05:07.133Z,47.42
2023-01-13T10:07:39.981Z,45.40
2023-01-13T10:10:17.785Z,44.70
2023-01-13T10:13:06.161Z,47.53
2023-01-13T10:15:34.721Z,42.88
2023-01-13T10:18:10.553Z,42.95
2023-01-13T10:20:48.388Z,41.35
2023-01-13T10:23:38.025Z,42.47
2023-01-13T10:26:18.026Z,39.08
2023-01-13T10:28:52.889Z,40.63
2023-01-13T10:31:22.281Z,41.05
2023-01-13T10:33:59.550Z,41.38
2023-01-13T10:36:27.680Z,39.10
2023-01-13T10:39:09.319Z,39.85
2023-01-13T10:41:37.550Z,40.28
2023-01-13T10:44:09.613Z,41.25
2023-01-13T10:46:53.528Z,40.72
2023-01-13T10:49:36.420Z,53.92
2023-01-13T10:52:07.182Z,42.50
2023-01-13T10:54:37.513Z,38.15
2023-01-13T10:57:16.759Z,35.38
2023-01-13T10:59:45.272Z,34.10
2023-01-13T11:02:26.261Z,89.45
2023-01-13T11:05:19.649Z,187.95
2023-01-13T11:07:50.529Z,58.35
2023-01-13T11:10:23.339Z,37.50
2023-01-13T11:12:59.849Z,42.67
2023-01-13T11:15:43.230Z,47.38
2023-01-13T11:18:19.328Z,51.72
2023-01-13T11:20:51.696Z,58.22
2023-01-13T11:23:27.481Z,37.45
2023-01-13T11:26:00.306Z,34.75
2023-01-13T11:28:40.103Z,37.25
2023-01-13T11:31:16.331Z,36.13
2023-01-13T11:33:49.555Z,43.60
2023-01-13T11:36:24.045Z,35.45
2023-01-13T11:38:54.891Z,30.92
2023-01-13T11:41:31.926Z,32.47
2023-01-13T11:44:12.157Z,28.27
2023-01-13T11:46:42.012Z,33.92
2023-01-13T11:49:15.680Z,30.42
2023-01-13T11:51:51.229Z,32.60
2023-01-13T11:54:41.734Z,42.28
2023-01-13T11:57:32.387Z,46.28
2023-01-13T12:00:19.056Z,96.60
2023-01-13T12:02:57.107Z,55.67
2023-01-13T12:05:35.392Z,40.25
2023-01-13T12:08:18.383Z,37.03
2023-01-13T12:10:58.641Z,42.10
2023-01-13T12:13:39.301Z,35.75
2023-01-13T12:16:20.423Z,27.60
2023-01-13T12:19:13.081Z,31.48
2023-01-13T12:21:56.902Z,32.22
2023-01-13T12:24:30.930Z,34.38
2023-01-13T12:27:03.218Z,32.33
2023-01-13T12:29:34.699Z,32.28
2023-01-13T12:32:06.012Z,31.13
2023-01-13T12:34:49.782Z,33.10
2023-01-13T12:37:25.246Z,33.13
2023-01-13T12:40:05.438Z,31.42
2023-01-13T12:42:58.910Z,30.67
2023-01-13T12:45:29.917Z,31.10
2023-01-13T12:47:58.976Z,31.15
2023-01-13T12:50:43.855Z,29.98
2023-01-13T12:53:32.916Z,26.95
2023-01-13T12:56:36.976Z,28.77
2023-01-13T12:59:37.057Z,32.15
2023-01-13T13:02:30.406Z,27.60
2023-01-13T13:05:01.780Z,29.55
2023-01-13T13:07:44.511Z,31.70
2023-01-13T13:10:19.738Z,27.27
2023-01-13T13:13:15.409Z,30.55
2023-01-13T13:15:46.162Z,29.48
2023-01-13T13:18:28.722Z,33.42
2023-01-13T13:21:02.927Z,48.08
2023-01-13T13:24:07.795Z,26.55
2023-01-13T13:26:42.479Z,32.45
2023-01-13T13:29:25.333Z,39.05
2023-01-13T13:32:08.386Z,41.75
2023-01-13T13:34:46.422Z,39.08
2023-01-13T13:37:57.905Z,84.40
2023-01-13T13:40:44.504Z,38.80
2023-01-13T13:43:39.080Z,46.70
2023-01-13T13:46:42.290Z,41.78
2023-01-13T13:49:12.021Z,48.15
2023-01-13T13:51:45.285Z,44.83
2023-01-13T13:54:17.734Z,49.80
2023-01-13T13:56:48.061Z,50.90
2023-01-13T13:59:20.213Z,54.30
2023-01-13T14:02:00.821Z,46.25
2023-01-13T14:04:32.025Z,39.33
2023-01-13T14:07:04.420Z,43.88
2023-01-13T14:09:42.347Z,40.50
2023-01-13T14:12:18.932Z,51.83
2023-01-13T14:14:48.637Z,42.00
2023-01-13T14:17:20.678Z,73.65
2023-01-13T14:19:54.969Z,75.88
2023-01-13T14:22:23.427Z,55.92
2023-01-13T14:24:55.715Z,61.25
2023-01-13T14:27:26.421Z,57.22
2023-01-13T14:29:55.511Z,64.93
2023-01-13T14:32:27.468Z,65.80
2023-01-13T14:34:56.858Z,65.68
2023-01-13T14:37:34.353Z,42.50
2023-01-13T14:40:02.426Z,38.13
2023-01-13T14:42:31.638Z,39.63
2023-01-13T14:45:03.421Z,40.90
2023-01-13T14:47:34.063Z,53.05
2023-01-13T14:50:06.726Z,54.95
2023-01-13T14:52:36.426Z,48.55
2023-01-13T14:55:25.472Z,52.35
2023-01-13T14:57:53.618Z,57.08
2023-01-13T15:00:25.697Z,55.42
2023-01-13T15:03:07.697Z,66.93
2023-01-13T15:05:47.475Z,67.70
2023-01-13T15:08:37.391Z,59.53
2023-01-13T15:11:07.754Z,44.95
2023-01-13T15:13:50.441Z,43.28
2023-01-13T15:16:25.071Z,51.78
2023-01-13T15:18:53.257Z,73.93
2023-01-13T15:21:23.452Z,77.53
2023-01-13T15:23:51.718Z,110.22
2023-01-13T15:26:22.900Z,99.97
2023-01-13T15:28:52.099Z,99.50
2023-01-13T15:31:20.527Z,105.03
2023-01-13T15:33:50.220Z,100.28
2023-01-13T15:36:26.036Z,87.50
2023-01-13T15:38:54.428Z,83.30
2023-01-13T15:41:42.920Z,79.65
2023-01-13T15:44:30.186Z,77.95
2023-01-13T15:47:00.533Z,79.85
2023-01-13T15:49:34.920Z,60.10
2023-01-13T15:52:05.331Z,62.17
2023-01-13T15:54:33.328Z,63.50
2023-01-13T15:57:02.115Z,67.47
2023-01-13T15:59:30.052Z,65.97
2023-01-13T16:01:58.045Z,69.13
2023-01-13T16:04:25.992Z,61.53
2023-01-13T16:06:54.028Z,60.45
2023-01-13T16:09:24.536Z,60.10
2023-01-13T16:11:52.522Z,241.55
2023-01-13T16:14:20.493Z,80.75
2023-01-13T16:16:48.380Z,61.95
2023-01-13T16:19:16.341Z,67.32
2023-01-13T16:21:45.362Z,59.60
2023-01-13T16:24:13.399Z,65.97
2023-01-13T16:26:42.919Z,186.18
2023-01-13T16:29:12.630Z,165.07
2023-01-13T16:31:40.686Z,194.18
2023-01-13T16:34:08.660Z,105.55
2023-01-13T16:36:37.798Z,77.65
2023-01-13T16:39:15.348Z,57.17
2023-01-13T16:41:44.592Z,81.45
2023-01-13T16:44:12.533Z,88.65
2023-01-13T16:46:40.836Z,89.07
2023-01-13T16:49:13.377Z,90.32
2023-01-13T16:51:41.573Z,82.43
2023-01-13T16:54:09.533Z,89.00
2023-01-13T16:56:38.230Z,91.07
2023-01-13T16:59:09.959Z,75.78
2023-01-13T17:01:40.448Z,71.82
2023-01-13T17:04:14.424Z,65.18
2023-01-13T17:06:44.653Z,69.88
2023-01-13T17:09:17.688Z,72.90
2023-01-13T17:11:45.750Z,57.38
2023-01-13T17:14:18.632Z,59.72
2023-01-13T17:16:47.680Z,75.40
2023-01-13T17:19:15.840Z,70.65
2023-01-13T17:21:44.114Z,63.60
2023-01-13T17:24:12.487Z,69.18
2023-01-13T17:26:43.954Z,69.13
2023-01-13T17:29:16.823Z,66.55
2023-01-13T17:31:44.978Z,76.13
2023-01-13T17:34:13.827Z,69.07
2023-01-13T17:36:43.459Z,132.73
2023-01-13T17:39:17.414Z,103.13
2023-01-13T17:41:45.847Z,117.35
2023-01-13T17:44:16.105Z,118.00
2023-01-13T17:46:44.733Z,85.55
2023-01-13T17:49:13.321Z,84.43
2023-01-13T17:51:41.576Z,103.47
2023-01-13T17:54:12.174Z,92.68
2023-01-13T17:56:43.794Z,89.82
2023-01-13T17:59:15.517Z,74.07
2023-01-13T18:01:45.084Z,81.38
2023-01-13T18:04:16.786Z,83.45
2023-01-13T18:06:45.411Z,73.97
2023-01-13T18:09:13.432Z,92.40
2023-01-13T18:11:41.557Z,78.82
2023-01-13T18:14:15.105Z,63.45
2023-01-13T18:16:44.903Z,69.55
2023-01-13T18:19:30.403Z,69.45
2023-01-13T18:22:15.925Z,62.47
2023-01-13T18:25:01.604Z,65.43
2023-01-13T18:27:33.103Z,74.90
2023-01-13T18:30:04.080Z,68.15
2023-01-13T18:32:34.692Z,72.30
2023-01-13T18:35:06.653Z,77.00
2023-01-13T18:37:38.543Z,79.20
2023-01-13T18:40:08.176Z,90.88
2023-01-13T18:42:54.014Z,112.07
2023-01-13T18:45:24.500Z,91.60
2023-01-13T18:47:55.504Z,91.05
2023-01-13T18:50:24.351Z,95.30
2023-01-13T18:52:52.933Z,82.10
2023-01-13T18:55:21.538Z,83.43
2023-01-13T18:57:50.364Z,86.47
2023-01-13T19:00:20.327Z,92.65
2023-01-13T19:02:48.629Z,88.38
2023-01-13T19:05:18.036Z,91.32
2023-01-13T19:07:50.876Z,83.65
2023-01-13T19:10:19.852Z,85.93
2023-01-13T19:12:47.767Z,81.38
2023-01-13T19:15:16.039Z,89.93
2023-01-13T19:17:45.050Z,85.97
2023-01-13T19:20:13.583Z,84.45
2023-01-13T19:22:42.985Z,76.10
2023-01-13T19:25:11.106Z,72.72
2023-01-13T19:27:39.926Z,76.95
2023-01-13T19:30:09.279Z,80.22
2023-01-13T19:32:37.185Z,95.95
2023-01-13T19:35:05.742Z,72.22
2023-01-13T19:37:34.322Z,70.43
2023-01-13T19:40:09.199Z,70.40
2023-01-13T19:45:29.456Z,80.20
2023-01-13T19:47:58.407Z,81.93
2023-01-13T19:50:26.622Z,78.43
2023-01-13T19:52:55.327Z,72.20
2023-01-13T19:55:25.567Z,80.55
2023-01-13T19:57:53.544Z,74.40
2023-01-13T20:00:22.012Z,80.00
2023-01-13T20:02:52.352Z,83.45
2023-01-13T20:05:24.457Z,86.45
2023-01-13T20:07:53.052Z,99.93
2023-01-13T20:10:22.302Z,91.30
2023-01-13T20:12:51.932Z,89.88
2023-01-13T20:15:19.940Z,98.20
2023-01-13T20:17:48.101Z,91.10
2023-01-13T20:20:16.893Z,98.50
2023-01-13T20:22:45.026Z,94.43
2023-01-13T20:25:16.930Z,89.60
2023-01-13T20:27:45.785Z,88.18
2023-01-13T20:30:15.632Z,81.90
2023-01-13T20:32:44.699Z,80.15
2023-01-13T20:35:12.819Z,74.80
2023-01-13T20:37:42.157Z,85.65
2023-01-13T20:40:15.613Z,79.38
2023-01-13T20:42:44.945Z,67.88
2023-01-13T20:45:17.601Z,68.60
2023-01-13T20:47:46.609Z,90.63
2023-01-13T20:50:15.611Z,80.10
2023-01-13T20:52:44.249Z,74.50
2023-01-13T20:55:13.038Z,72.72
2023-01-13T20:57:41.482Z,65.25
2023-01-13T21:00:11.375Z,65.90
2023-01-13T21:02:43.935Z,65.93
2023-01-13T21:05:12.145Z,67.32
2023-01-13T21:07:40.174Z,63.50
2023-01-13T21:10:11.308Z,81.57
2023-01-13T21:12:56.622Z,77.05
2023-01-13T21:15:25.856Z,77.78
2023-01-13T21:18:12.799Z,63.65
2023-01-13T21:20:40.807Z,58.45
2023-01-13T21:23:10.861Z,62.40
2023-01-13T21:25:40.109Z,75.20
2023-01-13T21:28:11.331Z,79.25
2023-01-13T21:30:39.501Z,72.50
2023-01-13T21:33:09.318Z,80.43
2023-01-13T21:35:40.047Z,97.28
2023-01-13T21:38:08.225Z,126.82
2023-01-13T21:40:36.325Z,82.45
2023-01-13T21:43:21.731Z,69.80
2023-01-13T21:48:36.095Z,59.85
2023-01-13T21:51:04.125Z,58.75
2023-01-13T21:53:32.128Z,55.28
2023-01-13T21:56:00.098Z,51.30
2023-01-13T21:58:28.116Z,61.42
2023-01-13T22:00:56.161Z,49.45
2023-01-13T22:03:24.230Z,52.53
2023-01-13T22:05:56.689Z,49.58
2023-01-13T22:08:24.638Z,46.08
2023-01-13T22:10:57.760Z,46.83
2023-01-13T22:13:44.434Z,48.92
2023-01-13T22:16:12.641Z,50.97
2023-01-13T22:18:40.715Z,53.80
2023-01-13T22:21:10.948Z,50.95
2023-01-13T22:23:39.739Z,61.40
2023-01-13T22:26:09.044Z,66.07
2023-01-13T22:28:42.793Z,61.88
2023-01-13T22:31:12.257Z,57.50
2023-01-13T22:33:40.944Z,53.92
2023-01-13T22:36:11.316Z,51.78
2023-01-13T22:38:39.327Z,58.63
2023-01-13T22:41:08.989Z,58.42
2023-01-13T22:43:38.382Z,60.45
2023-01-13T22:46:08.219Z,64.03
2023-01-13T22:48:36.778Z,60.22
2023-01-13T22:51:11.160Z,63.00
2023-01-13T22:53:39.595Z,62.28
2023-01-13T22:56:08.645Z,66.30
2023-01-13T22:58:36.668Z,61.83
2023-01-13T23:01:12.947Z,60.92
2023-01-13T23:03:42.021Z,65.90
2023-01-13T23:06:11.515Z,65.38
2023-01-13T23:08:39.534Z,61.08
2023-01-13T23:11:09.584Z,55.75
2023-01-13T23:13:39.433Z,57.03
2023-01-13T23:16:10.365Z,60.63
2023-01-13T23:18:38.917Z,56.42
2023-01-13T23:21:09.995Z,55.50
2023-01-13T23:23:39.534Z,57.13
2023-01-13T23:26:08.265Z,58.75
2023-01-13T23:28:36.878Z,57.58
2023-01-13T23:31:07.739Z,61.90
2023-01-13T23:33:35.956Z,59.10
2023-01-13T23:36:06.206Z,57.97
2023-01-13T23:38:34.206Z,56.53
2023-01-13T23:41:07.526Z,55.33
2023-01-13T23:43:35.689Z,47.72
2023-01-13T23:46:04.511Z,52.42
2023-01-13T23:48:33.534Z,51.40
2023-01-13T23:51:02.696Z,49.65
2023-01-13T23:53:33.612Z,45.17
2023-01-13T23:56:03.889Z,41.78
2023-01-13T23:58:32.479Z,45.78
